sensor_id;sensor_type;location;lat;lon;timestamp;pressure;altitude;pressure_sealevel;temperature;humidity
21728;BME280;11026;50.560;17.852;2022-11-20T00:01:32;99329.56;;;-6.17;92.98
21728;BME280;11026;50.560;17.852;2022-11-20T00:04:00;99331.91;;;-6.29;93.27
21728;BME280;11026;50.560;17.852;2022-11-20T00:06:27;99327.00;;;-6.15;93.02
21728;BME280;11026;50.560;17.852;2022-11-20T00:08:56;99327.94;;;-6.13;92.94
21728;BME280;11026;50.560;17.852;2022-11-20T00:11:25;99332.03;;;-6.22;92.84
21728;BME280;11026;50.560;17.852;2022-11-20T00:13:55;99331.44;;;-6.52;92.97
21728;BME280;11026;50.560;17.852;2022-11-20T00:16:27;99327.84;;;-6.59;93.48
21728;BME280;11026;50.560;17.852;2022-11-20T00:18:54;99324.34;;;-6.62;93.96
21728;BME280;11026;50.560;17.852;2022-11-20T00:21:24;99328.56;;;-6.66;94.57
21728;BME280;11026;50.560;17.852;2022-11-20T00:23:55;99333.78;;;-6.63;94.91
21728;BME280;11026;50.560;17.852;2022-11-20T00:26:25;99323.66;;;-6.54;94.69
21728;BME280;11026;50.560;17.852;2022-11-20T00:28:55;99322.53;;;-6.68;94.60
21728;BME280;11026;50.560;17.852;2022-11-20T00:31:23;99317.22;;;-6.76;95.10
21728;BME280;11026;50.560;17.852;2022-11-20T00:33:51;99311.47;;;-6.64;95.00
21728;BME280;11026;50.560;17.852;2022-11-20T00:36:21;99314.06;;;-6.62;95.32
21728;BME280;11026;50.560;17.852;2022-11-20T00:39:02;99315.84;;;-6.58;94.85
21728;BME280;11026;50.560;17.852;2022-11-20T00:41:30;99318.16;;;-6.72;95.10
21728;BME280;11026;50.560;17.852;2022-11-20T00:43:57;99309.78;;;-6.62;95.09
21728;BME280;11026;50.560;17.852;2022-11-20T00:46:26;99315.84;;;-6.58;94.96
21728;BME280;11026;50.560;17.852;2022-11-20T00:49:01;99314.06;;;-6.62;94.79
21728;BME280;11026;50.560;17.852;2022-11-20T00:51:28;99315.16;;;-6.50;94.79
21728;BME280;11026;50.560;17.852;2022-11-20T00:53:57;99317.50;;;-6.62;94.60
21728;BME280;11026;50.560;17.852;2022-11-20T00:56:25;99315.78;;;-6.61;94.26
21728;BME280;11026;50.560;17.852;2022-11-20T00:58:53;99326.38;;;-6.48;93.63
21728;BME280;11026;50.560;17.852;2022-11-20T01:01:24;99323.03;;;-6.42;93.26
21728;BME280;11026;50.560;17.852;2022-11-20T01:03:54;99317.88;;;-6.45;92.35
21728;BME280;11026;50.560;17.852;2022-11-20T01:06:28;99315.91;;;-6.55;92.46
21728;BME280;11026;50.560;17.852;2022-11-20T01:08:57;99318.44;;;-6.58;92.19
21728;BME280;11026;50.560;17.852;2022-11-20T01:11:30;99312.31;;;-6.63;92.49
21728;BME280;11026;50.560;17.852;2022-11-20T01:13:59;99311.91;;;-6.82;92.51
21728;BME280;11026;50.560;17.852;2022-11-20T01:16:30;99313.69;;;-6.79;92.47
21728;BME280;11026;50.560;17.852;2022-11-20T01:19:00;99316.09;;;-6.87;92.69
21728;BME280;11026;50.560;17.852;2022-11-20T01:21:30;99311.81;;;-6.86;92.37
21728;BME280;11026;50.560;17.852;2022-11-20T01:23:59;99313.25;;;-7.01;92.32
21728;BME280;11026;50.560;17.852;2022-11-20T01:26:36;99318.13;;;-7.11;92.52
21728;BME280;11026;50.560;17.852;2022-11-20T01:29:04;99304.22;;;-7.20;92.66
21728;BME280;11026;50.560;17.852;2022-11-20T01:31:35;99292.53;;;-7.05;92.86
21728;BME280;11026;50.560;17.852;2022-11-20T01:34:05;99289.34;;;-6.95;92.32
21728;BME280;11026;50.560;17.852;2022-11-20T01:36:35;99293.53;;;-7.00;92.29
21728;BME280;11026;50.560;17.852;2022-11-20T01:39:07;99296.19;;;-7.33;92.48
21728;BME280;11026;50.560;17.852;2022-11-20T01:41:34;99298.47;;;-7.46;93.12
21728;BME280;11026;50.560;17.852;2022-11-20T01:47:41;99289.97;;;-7.05;93.33
21728;BME280;11026;50.560;17.852;2022-11-20T01:50:18;99289.53;;;-6.87;92.83
21728;BME280;11026;50.560;17.852;2022-11-20T01:53:01;99288.41;;;-6.99;92.10
21728;BME280;11026;50.560;17.852;2022-11-20T01:55:43;99292.81;;;-6.93;91.98
21728;BME280;11026;50.560;17.852;2022-11-20T01:58:16;99292.81;;;-6.93;91.59
21728;BME280;11026;50.560;17.852;2022-11-20T02:00:45;99294.56;;;-6.92;91.54
21728;BME280;11026;50.560;17.852;2022-11-20T02:03:21;99295.84;;;-7.12;91.44
21728;BME280;11026;50.560;17.852;2022-11-20T02:06:01;99298.50;;;-7.08;91.22
21728;BME280;11026;50.560;17.852;2022-11-20T02:08:33;99294.06;;;-7.13;90.77
21728;BME280;11026;50.560;17.852;2022-11-20T02:11:03;99295.75;;;-7.15;91.13
21728;BME280;11026;50.560;17.852;2022-11-20T02:13:31;99276.50;;;-7.33;91.18
21728;BME280;11026;50.560;17.852;2022-11-20T02:16:27;99285.09;;;-7.32;91.27
21728;BME280;11026;50.560;17.852;2022-11-20T02:18:58;99281.50;;;-7.39;91.52
21728;BME280;11026;50.560;17.852;2022-11-20T02:22:02;99275.25;;;-7.50;91.74
21728;BME280;11026;50.560;17.852;2022-11-20T02:24:32;99270.78;;;-7.57;91.81
21728;BME280;11026;50.560;17.852;2022-11-20T02:27:04;99267.94;;;-7.68;92.08
21728;BME280;11026;50.560;17.852;2022-11-20T02:29:38;99273.78;;;-7.75;92.74
21728;BME280;11026;50.560;17.852;2022-11-20T02:32:20;99271.22;;;-7.75;92.84
21728;BME280;11026;50.560;17.852;2022-11-20T02:34:48;99264.03;;;-7.52;93.01
21728;BME280;11026;50.560;17.852;2022-11-20T02:37:15;99281.41;;;-7.44;93.13
21728;BME280;11026;50.560;17.852;2022-11-20T02:39:51;99280.94;;;-7.26;92.64
21728;BME280;11026;50.560;17.852;2022-11-20T02:42:19;99282.66;;;-7.26;91.61
21728;BME280;11026;50.560;17.852;2022-11-20T02:44:46;99283.16;;;-7.41;91.19
21728;BME280;11026;50.560;17.852;2022-11-20T02:47:14;99282.25;;;-7.43;91.27
21728;BME280;11026;50.560;17.852;2022-11-20T02:49:41;99292.66;;;-7.73;91.35
21728;BME280;11026;50.560;17.852;2022-11-20T02:52:08;99300.69;;;-7.94;91.79
21728;BME280;11026;50.560;17.852;2022-11-20T02:54:36;99292.75;;;-7.69;92.30
21728;BME280;11026;50.560;17.852;2022-11-20T02:57:03;99286.94;;;-7.61;92.08
21728;BME280;11026;50.560;17.852;2022-11-20T02:59:32;99291.13;;;-7.67;91.67
21728;BME280;11026;50.560;17.852;2022-11-20T03:02:01;99299.56;;;-7.71;92.07
21728;BME280;11026;50.560;17.852;2022-11-20T03:04:30;99294.06;;;-7.84;91.85
21728;BME280;11026;50.560;17.852;2022-11-20T03:06:58;99294.03;;;-7.86;92.14
21728;BME280;11026;50.560;17.852;2022-11-20T03:09:25;99293.13;;;-7.88;92.08
21728;BME280;11026;50.560;17.852;2022-11-20T03:11:52;99290.38;;;-7.96;92.39
21728;BME280;11026;50.560;17.852;2022-11-20T03:14:20;99292.84;;;-7.65;92.00
21728;BME280;11026;50.560;17.852;2022-11-20T03:16:47;99281.69;;;-7.68;91.18
21728;BME280;11026;50.560;17.852;2022-11-20T03:19:15;99286.56;;;-7.77;91.04
21728;BME280;11026;50.560;17.852;2022-11-20T03:21:42;99297.91;;;-8.02;91.15
21728;BME280;11026;50.560;17.852;2022-11-20T03:24:09;99298.22;;;-8.23;91.39
21728;BME280;11026;50.560;17.852;2022-11-20T03:26:38;99293.75;;;-8.30;92.03
21728;BME280;11026;50.560;17.852;2022-11-20T03:29:06;99299.22;;;-7.84;91.55
21728;BME280;11026;50.560;17.852;2022-11-20T03:31:36;99293.97;;;-7.89;90.77
21728;BME280;11026;50.560;17.852;2022-11-20T03:34:06;99305.31;;;-8.12;90.79
21728;BME280;11026;50.560;17.852;2022-11-20T03:36:34;99308.50;;;-8.23;91.02
21728;BME280;11026;50.560;17.852;2022-11-20T03:39:02;99305.59;;;-8.35;91.64
21728;BME280;11026;50.560;17.852;2022-11-20T03:41:31;99306.09;;;-8.48;91.75
21728;BME280;11026;50.560;17.852;2022-11-20T03:44:03;99312.44;;;-8.65;92.27
21728;BME280;11026;50.560;17.852;2022-11-20T03:46:30;99313.09;;;-8.73;92.84
21728;BME280;11026;50.560;17.852;2022-11-20T03:48:58;99302.09;;;-8.69;93.27
21728;BME280;11026;50.560;17.852;2022-11-20T03:51:30;99304.84;;;-8.62;93.37
21728;BME280;11026;50.560;17.852;2022-11-20T03:53:59;99308.22;;;-8.63;93.61
21728;BME280;11026;50.560;17.852;2022-11-20T03:56:29;99312.56;;;-8.29;93.10
21728;BME280;11026;50.560;17.852;2022-11-20T03:58:59;99310.13;;;-8.25;92.29
21728;BME280;11026;50.560;17.852;2022-11-20T04:01:31;99307.56;;;-8.25;92.12
21728;BME280;11026;50.560;17.852;2022-11-20T04:03:59;99302.31;;;-8.29;91.96
21728;BME280;11026;50.560;17.852;2022-11-20T04:06:30;99303.34;;;-8.23;92.30
21728;BME280;11026;50.560;17.852;2022-11-20T04:08:58;99300.81;;;-8.21;92.43
21728;BME280;11026;50.560;17.852;2022-11-20T04:11:28;99303.69;;;-8.10;92.46
21728;BME280;11026;50.560;17.852;2022-11-20T04:14:01;99302.09;;;-8.05;92.49
21728;BME280;11026;50.560;17.852;2022-11-20T04:16:30;99302.94;;;-8.06;92.34
21728;BME280;11026;50.560;17.852;2022-11-20T04:19:00;99298.47;;;-8.13;92.17
21728;BME280;11026;50.560;17.852;2022-11-20T04:21:28;99303.13;;;-7.99;92.22
21728;BME280;11026;50.560;17.852;2022-11-20T04:23:55;99294.72;;;-7.93;91.98
21728;BME280;11026;50.560;17.852;2022-11-20T04:26:26;99298.94;;;-7.95;91.48
21728;BME280;11026;50.560;17.852;2022-11-20T04:28:54;99303.59;;;-8.13;91.56
21728;BME280;11026;50.560;17.852;2022-11-20T04:31:25;99300.41;;;-8.05;91.34
21728;BME280;11026;50.560;17.852;2022-11-20T04:33:53;99298.44;;;-7.82;91.77
21728;BME280;11026;50.560;17.852;2022-11-20T04:36:23;99289.09;;;-7.80;91.85
21728;BME280;11026;50.560;17.852;2022-11-20T04:38:52;99285.50;;;-7.85;91.61
21728;BME280;11026;50.560;17.852;2022-11-20T04:41:25;99291.06;;;-8.03;91.47
21728;BME280;11026;50.560;17.852;2022-11-20T04:43:56;99289.97;;;-8.11;91.53
21728;BME280;11026;50.560;17.852;2022-11-20T04:46:28;99284.66;;;-8.19;91.81
21728;BME280;11026;50.560;17.852;2022-11-20T04:48:59;99284.25;;;-8.32;91.96
21728;BME280;11026;50.560;17.852;2022-11-20T04:51:27;99276.88;;;-8.20;92.53
21728;BME280;11026;50.560;17.852;2022-11-20T04:53:54;99271.91;;;-8.15;92.17
21728;BME280;11026;50.560;17.852;2022-11-20T04:56:22;99272.38;;;-8.29;92.21
21728;BME280;11026;50.560;17.852;2022-11-20T04:58:50;99262.66;;;-8.42;92.66
21728;BME280;11026;50.560;17.852;2022-11-20T05:01:23;99271.25;;;-8.40;92.98
21728;BME280;11026;50.560;17.852;2022-11-20T05:03:51;99269.03;;;-8.26;93.22
21728;BME280;11026;50.560;17.852;2022-11-20T05:06:20;99264.44;;;-8.06;92.94
21728;BME280;11026;50.560;17.852;2022-11-20T05:08:49;99261.19;;;-7.99;92.62
21728;BME280;11026;50.560;17.852;2022-11-20T05:11:19;99265.28;;;-8.06;92.39
21728;BME280;11026;50.560;17.852;2022-11-20T05:13:48;99265.47;;;-8.00;92.06
21728;BME280;11026;50.560;17.852;2022-11-20T05:16:23;99266.94;;;-7.75;91.73
21728;BME280;11026;50.560;17.852;2022-11-20T05:18:53;99261.88;;;-7.72;90.70
21728;BME280;11026;50.560;17.852;2022-11-20T05:21:23;99268.06;;;-7.98;90.13
21728;BME280;11026;50.560;17.852;2022-11-20T05:23:51;99269.13;;;-7.90;90.16
21728;BME280;11026;50.560;17.852;2022-11-20T05:26:21;99265.03;;;-7.83;89.80
21728;BME280;11026;50.560;17.852;2022-11-20T05:28:49;99260.00;;;-8.12;89.83
21728;BME280;11026;50.560;17.852;2022-11-20T05:31:23;99262.03;;;-8.32;90.03
21728;BME280;11026;50.560;17.852;2022-11-20T05:33:56;99271.72;;;-8.22;90.41
21728;BME280;11026;50.560;17.852;2022-11-20T05:36:23;99270.69;;;-8.28;90.83
21728;BME280;11026;50.560;17.852;2022-11-20T05:38:51;99267.91;;;-8.37;91.06
21728;BME280;11026;50.560;17.852;2022-11-20T05:41:25;99272.56;;;-8.23;91.09
21728;BME280;11026;50.560;17.852;2022-11-20T05:43:53;99271.34;;;-8.35;90.90
21728;BME280;11026;50.560;17.852;2022-11-20T05:46:21;99269.91;;;-8.26;90.68
21728;BME280;11026;50.560;17.852;2022-11-20T05:48:56;99264.56;;;-8.33;90.80
21728;BME280;11026;50.560;17.852;2022-11-20T05:51:24;99265.22;;;-8.42;91.00
21728;BME280;11026;50.560;17.852;2022-11-20T05:53:55;99257.41;;;-8.47;91.02
21728;BME280;11026;50.560;17.852;2022-11-20T05:56:23;99265.00;;;-8.50;91.55
21728;BME280;11026;50.560;17.852;2022-11-20T05:58:50;99261.50;;;-8.53;91.38
21728;BME280;11026;50.560;17.852;2022-11-20T06:01:20;99264.81;;;-8.57;91.82
21728;BME280;11026;50.560;17.852;2022-11-20T06:03:49;99260.31;;;-8.33;91.58
21728;BME280;11026;50.560;17.852;2022-11-20T06:06:19;99266.06;;;-8.43;91.09
21728;BME280;11026;50.560;17.852;2022-11-20T06:08:54;99262.88;;;-8.33;91.24
21728;BME280;11026;50.560;17.852;2022-11-20T06:11:21;99256.03;;;-8.32;90.88
21728;BME280;11026;50.560;17.852;2022-11-20T06:13:49;99264.03;;;-8.22;90.66
21728;BME280;11026;50.560;17.852;2022-11-20T06:16:18;99258.38;;;-8.08;90.48
21728;BME280;11026;50.560;17.852;2022-11-20T06:18:47;99267.44;;;-8.23;90.23
21728;BME280;11026;50.560;17.852;2022-11-20T06:21:20;99254.59;;;-8.23;90.14
21728;BME280;11026;50.560;17.852;2022-11-20T06:23:49;99259.56;;;-8.29;89.84
21728;BME280;11026;50.560;17.852;2022-11-20T06:26:20;99251.22;;;-8.20;89.48
21728;BME280;11026;50.560;17.852;2022-11-20T06:28:50;99253.53;;;-8.31;89.41
21728;BME280;11026;50.560;17.852;2022-11-20T06:31:20;99247.38;;;-8.36;89.43
21728;BME280;11026;50.560;17.852;2022-11-20T06:33:48;99246.59;;;-8.35;89.39
21728;BME280;11026;50.560;17.852;2022-11-20T06:36:20;99252.25;;;-8.13;89.58
21728;BME280;11026;50.560;17.852;2022-11-20T06:38:48;99236.28;;;-8.03;89.32
21728;BME280;11026;50.560;17.852;2022-11-20T06:41:19;99240.09;;;-8.21;88.88
21728;BME280;11026;50.560;17.852;2022-11-20T06:43:46;99233.22;;;-8.22;89.51
21728;BME280;11026;50.560;17.852;2022-11-20T06:46:16;99231.97;;;-8.39;89.52
21728;BME280;11026;50.560;17.852;2022-11-20T06:48:49;99223.22;;;-8.46;90.43
21728;BME280;11026;50.560;17.852;2022-11-20T06:51:18;99224.59;;;-8.24;90.50
21728;BME280;11026;50.560;17.852;2022-11-20T06:53:46;99223.59;;;-7.97;90.33
21728;BME280;11026;50.560;17.852;2022-11-20T06:56:13;99220.41;;;-7.87;90.15
21728;BME280;11026;50.560;17.852;2022-11-20T06:58:47;99224.75;;;-7.84;89.67
21728;BME280;11026;50.560;17.852;2022-11-20T07:01:14;99215.66;;;-7.72;88.95
21728;BME280;11026;50.560;17.852;2022-11-20T07:03:43;99223.50;;;-7.65;88.65
21728;BME280;11026;50.560;17.852;2022-11-20T07:06:13;99216.75;;;-7.60;88.41
21728;BME280;11026;50.560;17.852;2022-11-20T07:08:41;99209.34;;;-7.48;88.16
21728;BME280;11026;50.560;17.852;2022-11-20T07:11:11;99216.28;;;-7.44;88.04
21728;BME280;11026;50.560;17.852;2022-11-20T07:13:39;99212.88;;;-7.43;88.10
21728;BME280;11026;50.560;17.852;2022-11-20T07:16:07;99211.34;;;-7.35;88.20
21728;BME280;11026;50.560;17.852;2022-11-20T07:18:35;99213.22;;;-7.28;88.63
21728;BME280;11026;50.560;17.852;2022-11-20T07:21:06;99213.56;;;-7.12;88.33
21728;BME280;11026;50.560;17.852;2022-11-20T07:23:34;99216.25;;;-7.06;88.33
21728;BME280;11026;50.560;17.852;2022-11-20T07:26:07;99205.25;;;-7.01;88.62
21728;BME280;11026;50.560;17.852;2022-11-20T07:28:35;99194.38;;;-6.86;88.77
21728;BME280;11026;50.560;17.852;2022-11-20T07:31:08;99188.53;;;-6.79;88.49
21728;BME280;11026;50.560;17.852;2022-11-20T07:33:42;99184.69;;;-6.57;88.46
21728;BME280;11026;50.560;17.852;2022-11-20T07:36:10;99182.47;;;-6.35;88.92
21728;BME280;11026;50.560;17.852;2022-11-20T07:38:37;99182.63;;;-6.28;88.66
21728;BME280;11026;50.560;17.852;2022-11-20T07:41:05;99186.13;;;-6.23;89.07
21728;BME280;11026;50.560;17.852;2022-11-20T07:43:33;99187.38;;;-5.99;89.03
21728;BME280;11026;50.560;17.852;2022-11-20T07:46:06;99193.88;;;-5.68;89.18
21728;BME280;11026;50.560;17.852;2022-11-20T07:48:35;99194.97;;;-5.54;89.46
21728;BME280;11026;50.560;17.852;2022-11-20T07:51:02;99183.97;;;-5.42;89.27
21728;BME280;11026;50.560;17.852;2022-11-20T07:53:30;99188.31;;;-5.38;89.50
21728;BME280;11026;50.560;17.852;2022-11-20T07:56:01;99190.22;;;-5.23;89.27
21728;BME280;11026;50.560;17.852;2022-11-20T07:58:29;99198.91;;;-5.18;88.80
21728;BME280;11026;50.560;17.852;2022-11-20T08:01:07;99199.88;;;-5.08;88.58
21728;BME280;11026;50.560;17.852;2022-11-20T08:03:35;99201.59;;;-5.10;87.92
21728;BME280;11026;50.560;17.852;2022-11-20T08:06:06;99189.28;;;-4.60;90.78
21728;BME280;11026;50.560;17.852;2022-11-20T08:08:34;99191.81;;;-4.64;91.13
21728;BME280;11026;50.560;17.852;2022-11-20T08:11:09;99194.34;;;-4.67;90.60
21728;BME280;11026;50.560;17.852;2022-11-20T08:13:55;99190.09;;;-4.65;89.35
21728;BME280;11026;50.560;17.852;2022-11-20T08:16:43;99189.94;;;-4.78;88.76
21728;BME280;11026;50.560;17.852;2022-11-20T08:19:12;99182.34;;;-4.64;88.60
21728;BME280;11026;50.560;17.852;2022-11-20T08:21:39;99183.22;;;-4.66;88.57
21728;BME280;11026;50.560;17.852;2022-11-20T08:24:07;99193.84;;;-4.39;88.13
21728;BME280;11026;50.560;17.852;2022-11-20T08:26:36;99187.03;;;-4.31;88.03
21728;BME280;11026;50.560;17.852;2022-11-20T08:29:11;99187.19;;;-4.15;88.24
21728;BME280;11026;50.560;17.852;2022-11-20T08:31:38;99186.56;;;-3.85;87.84
21728;BME280;11026;50.560;17.852;2022-11-20T08:34:06;99181.06;;;-3.06;87.66
21728;BME280;11026;50.560;17.852;2022-11-20T08:36:35;99184.84;;;-1.94;85.22
21728;BME280;11026;50.560;17.852;2022-11-20T08:39:13;99163.50;;;-0.10;79.95
21728;BME280;11026;50.560;17.852;2022-11-20T08:41:41;99173.97;;;0.84;70.77
21728;BME280;11026;50.560;17.852;2022-11-20T08:44:10;99171.25;;;2.22;67.34
21728;BME280;11026;50.560;17.852;2022-11-20T08:46:40;99163.56;;;3.54;63.39
21728;BME280;11026;50.560;17.852;2022-11-20T08:49:14;99168.09;;;3.86;57.06
21728;BME280;11026;50.560;17.852;2022-11-20T08:51:42;99176.03;;;3.82;57.79
21728;BME280;11026;50.560;17.852;2022-11-20T08:54:09;99172.09;;;4.73;58.02
21728;BME280;11026;50.560;17.852;2022-11-20T08:56:37;99167.13;;;5.27;55.18
21728;BME280;11026;50.560;17.852;2022-11-20T08:59:04;99165.06;;;6.26;53.76
21728;BME280;11026;50.560;17.852;2022-11-20T09:01:53;99171.94;;;6.30;51.72
21728;BME280;11026;50.560;17.852;2022-11-20T09:04:20;99165.38;;;6.68;51.15
21728;BME280;11026;50.560;17.852;2022-11-20T09:06:48;99160.38;;;7.35;49.80
21728;BME280;11026;50.560;17.852;2022-11-20T09:09:18;99155.34;;;7.98;48.31
21728;BME280;11026;50.560;17.852;2022-11-20T09:11:46;99150.47;;;8.33;46.91
21728;BME280;11026;50.560;17.852;2022-11-20T09:14:13;99153.44;;;8.88;45.84
21728;BME280;11026;50.560;17.852;2022-11-20T09:16:44;99154.56;;;9.23;45.08
21728;BME280;11026;50.560;17.852;2022-11-20T09:19:12;99155.44;;;9.80;43.86
21728;BME280;11026;50.560;17.852;2022-11-20T09:21:59;99155.38;;;8.20;44.45
21728;BME280;11026;50.560;17.852;2022-11-20T09:24:27;99159.88;;;8.40;44.86
21728;BME280;11026;50.560;17.852;2022-11-20T09:26:55;99158.84;;;9.05;44.45
21728;BME280;11026;50.560;17.852;2022-11-20T09:29:22;99148.44;;;9.60;44.15
21728;BME280;11026;50.560;17.852;2022-11-20T09:31:51;99145.28;;;9.33;44.16
21728;BME280;11026;50.560;17.852;2022-11-20T09:34:19;99136.28;;;10.13;43.53
21728;BME280;11026;50.560;17.852;2022-11-20T09:36:47;99141.44;;;10.70;41.62
21728;BME280;11026;50.560;17.852;2022-11-20T09:39:14;99138.28;;;11.14;41.16
21728;BME280;11026;50.560;17.852;2022-11-20T09:44:38;99126.69;;;11.49;39.75
21728;BME280;11026;50.560;17.852;2022-11-20T09:52:41;99122.44;;;12.26;37.30
21728;BME280;11026;50.560;17.852;2022-11-20T09:55:13;99122.13;;;12.46;37.10
21728;BME280;11026;50.560;17.852;2022-11-20T09:57:46;99114.81;;;12.66;36.36
21728;BME280;11026;50.560;17.852;2022-11-20T10:00:15;99108.69;;;12.79;37.10
21728;BME280;11026;50.560;17.852;2022-11-20T10:03:01;99106.56;;;13.29;35.64
21728;BME280;11026;50.560;17.852;2022-11-20T10:05:48;99104.19;;;13.53;35.09
21728;BME280;11026;50.560;17.852;2022-11-20T10:08:22;99110.00;;;13.31;35.29
21728;BME280;11026;50.560;17.852;2022-11-20T10:11:13;99108.31;;;11.78;35.40
21728;BME280;11026;50.560;17.852;2022-11-20T10:14:04;99114.41;;;10.09;37.23
21728;BME280;11026;50.560;17.852;2022-11-20T10:17:05;99104.75;;;11.14;37.06
21728;BME280;11026;50.560;17.852;2022-11-20T10:19:53;99104.31;;;9.81;37.91
21728;BME280;11026;50.560;17.852;2022-11-20T10:25:18;99085.84;;;12.17;37.09
21728;BME280;11026;50.560;17.852;2022-11-20T10:30:44;99081.25;;;11.73;34.89
21728;BME280;11026;50.560;17.852;2022-11-20T10:33:24;99086.13;;;12.42;35.10
21728;BME280;11026;50.560;17.852;2022-11-20T10:36:21;99095.38;;;13.52;33.84
21728;BME280;11026;50.560;17.852;2022-11-20T10:39:04;99084.59;;;12.38;34.03
21728;BME280;11026;50.560;17.852;2022-11-20T10:41:44;99086.13;;;11.96;35.02
21728;BME280;11026;50.560;17.852;2022-11-20T10:44:20;99078.31;;;12.25;34.46
21728;BME280;11026;50.560;17.852;2022-11-20T10:47:18;99068.44;;;12.27;35.13
21728;BME280;11026;50.560;17.852;2022-11-20T10:49:48;99062.56;;;13.11;34.35
21728;BME280;11026;50.560;17.852;2022-11-20T10:58:16;99068.50;;;12.41;32.31
21728;BME280;11026;50.560;17.852;2022-11-20T11:00:46;99061.09;;;11.86;34.86
21728;BME280;11026;50.560;17.852;2022-11-20T11:03:28;99051.81;;;12.98;33.65
21728;BME280;11026;50.560;17.852;2022-11-20T11:06:12;99048.16;;;13.43;32.43
21728;BME280;11026;50.560;17.852;2022-11-20T11:08:46;99053.88;;;12.78;33.00
21728;BME280;11026;50.560;17.852;2022-11-20T11:11:24;99048.91;;;11.82;33.35
21728;BME280;11026;50.560;17.852;2022-11-20T11:13:52;99053.53;;;11.63;33.71
21728;BME280;11026;50.560;17.852;2022-11-20T11:18:50;99052.97;;;12.19;34.03
21728;BME280;11026;50.560;17.852;2022-11-20T11:21:25;99043.03;;;12.23;33.15
21728;BME280;11026;50.560;17.852;2022-11-20T11:24:30;99047.16;;;13.01;33.00
21728;BME280;11026;50.560;17.852;2022-11-20T11:27:14;99062.28;;;12.57;32.61
21728;BME280;11026;50.560;17.852;2022-11-20T11:29:48;99073.25;;;9.50;34.88
21728;BME280;11026;50.560;17.852;2022-11-20T11:32:20;99070.78;;;7.84;37.37
21728;BME280;11026;50.560;17.852;2022-11-20T11:35:03;99063.28;;;8.59;39.39
21728;BME280;11026;50.560;17.852;2022-11-20T11:37:35;99060.19;;;10.02;37.35
21728;BME280;11026;50.560;17.852;2022-11-20T11:40:05;99058.91;;;8.38;37.30
21728;BME280;11026;50.560;17.852;2022-11-20T11:43:04;99048.69;;;9.48;38.14
21728;BME280;11026;50.560;17.852;2022-11-20T11:45:32;99040.25;;;9.95;36.56
21728;BME280;11026;50.560;17.852;2022-11-20T11:48:02;99028.53;;;9.65;37.51
21728;BME280;11026;50.560;17.852;2022-11-20T11:50:30;99034.00;;;10.15;37.01
21728;BME280;11026;50.560;17.852;2022-11-20T11:53:17;99017.75;;;10.91;35.91
21728;BME280;11026;50.560;17.852;2022-11-20T11:55:55;99008.94;;;11.23;34.93
21728;BME280;11026;50.560;17.852;2022-11-20T11:58:48;99003.13;;;11.96;34.83
21728;BME280;11026;50.560;17.852;2022-11-20T12:03:59;98999.03;;;12.79;33.54
21728;BME280;11026;50.560;17.852;2022-11-20T12:06:30;98993.31;;;12.85;33.45
21728;BME280;11026;50.560;17.852;2022-11-20T12:09:09;98995.78;;;12.88;33.37
21728;BME280;11026;50.560;17.852;2022-11-20T12:14:34;98985.19;;;11.85;34.38
21728;BME280;11026;50.560;17.852;2022-11-20T12:17:03;98984.13;;;12.48;34.31
21728;BME280;11026;50.560;17.852;2022-11-20T12:19:33;98987.31;;;10.99;33.45
21728;BME280;11026;50.560;17.852;2022-11-20T12:25:07;99008.53;;;9.78;36.07
21728;BME280;11026;50.560;17.852;2022-11-20T12:27:57;98996.63;;;10.40;35.27
21728;BME280;11026;50.560;17.852;2022-11-20T12:30:32;99001.03;;;8.76;37.75
21728;BME280;11026;50.560;17.852;2022-11-20T13:07:15;98956.94;;;10.05;35.35
21728;BME280;11026;50.560;17.852;2022-11-20T13:09:48;98940.94;;;10.43;34.63
21728;BME280;11026;50.560;17.852;2022-11-20T13:12:32;98941.88;;;11.07;34.18
21728;BME280;11026;50.560;17.852;2022-11-20T13:17:55;98937.47;;;9.37;36.22
21728;BME280;11026;50.560;17.852;2022-11-20T13:20:30;98926.97;;;9.89;35.68
21728;BME280;11026;50.560;17.852;2022-11-20T13:23:02;98920.44;;;10.14;35.48
21728;BME280;11026;50.560;17.852;2022-11-20T13:25:34;98929.44;;;9.92;35.39
21728;BME280;11026;50.560;17.852;2022-11-20T13:30:54;98937.72;;;7.75;38.05
21728;BME280;11026;50.560;17.852;2022-11-20T13:33:38;98932.81;;;7.02;39.50
21728;BME280;11026;50.560;17.852;2022-11-20T13:36:23;98940.84;;;6.52;41.29
21728;BME280;11026;50.560;17.852;2022-11-20T13:38:55;98936.00;;;5.91;42.09
21728;BME280;11026;50.560;17.852;2022-11-20T13:41:35;98930.50;;;5.19;43.28
21728;BME280;11026;50.560;17.852;2022-11-20T13:46:59;98931.22;;;3.72;46.45
21728;BME280;11026;50.560;17.852;2022-11-20T13:49:38;98923.53;;;3.33;48.22
21728;BME280;11026;50.560;17.852;2022-11-20T13:55:30;98922.66;;;2.95;49.07
21728;BME280;11026;50.560;17.852;2022-11-20T14:01:25;98920.59;;;2.70;49.50
21728;BME280;11026;50.560;17.852;2022-11-20T14:03:57;98944.94;;;2.31;50.39
21728;BME280;11026;50.560;17.852;2022-11-20T14:06:43;98947.50;;;1.86;51.49
21728;BME280;11026;50.560;17.852;2022-11-20T14:09:25;98933.97;;;1.67;52.63
21728;BME280;11026;50.560;17.852;2022-11-20T14:11:53;98928.78;;;1.62;52.54
21728;BME280;11026;50.560;17.852;2022-11-20T14:14:28;98937.50;;;1.63;52.99
21728;BME280;11026;50.560;17.852;2022-11-20T14:17:34;98939.97;;;1.70;53.24
21728;BME280;11026;50.560;17.852;2022-11-20T14:20:12;98935.31;;;1.88;53.23
21728;BME280;11026;50.560;17.852;2022-11-20T14:22:53;98935.31;;;1.88;53.70
21728;BME280;11026;50.560;17.852;2022-11-20T14:25:24;98934.56;;;1.81;54.04
21728;BME280;11026;50.560;17.852;2022-11-20T14:27:57;98927.44;;;1.91;54.26
21728;BME280;11026;50.560;17.852;2022-11-20T14:30:28;98918.03;;;1.81;54.82
21728;BME280;11026;50.560;17.852;2022-11-20T14:33:01;98915.53;;;1.76;54.79
21728;BME280;11026;50.560;17.852;2022-11-20T14:35:34;98914.72;;;1.72;55.90
21728;BME280;11026;50.560;17.852;2022-11-20T14:38:11;98904.19;;;1.79;55.75
21728;BME280;11026;50.560;17.852;2022-11-20T14:40:43;98901.19;;;1.52;56.57
21728;BME280;11026;50.560;17.852;2022-11-20T14:46:03;98887.31;;;1.50;56.68